sensor_id;sensor_type;location;lat;lon;timestamp;P1;durP1;ratioP1;P2;durP2;ratioP2
5678;SDS011;2862;52.560;13.566;2023-08-06T00:03:14;24.17;;;7.50;;
5678;SDS011;2862;52.560;13.566;2023-08-06T00:13:19;19.90;;;7.23;;
5678;SDS011;2862;52.560;13.566;2023-08-06T00:23:22;20.80;;;8.00;;
5678;SDS011;2862;52.560;13.566;2023-08-06T00:33:27;21.23;;;7.77;;
5678;SDS011;2862;52.560;13.566;2023-08-06T00:43:30;21.70;;;7.47;;
5678;SDS011;2862;52.560;13.566;2023-08-06T00:53:34;22.30;;;7.70;;
5678;SDS011;2862;52.560;13.566;2023-08-06T01:03:38;23.47;;;9.73;;
5678;SDS011;2862;52.560;13.566;2023-08-06T01:13:43;20.80;;;8.40;;
5678;SDS011;2862;52.560;13.566;2023-08-06T01:23:50;23.27;;;9.43;;
5678;SDS011;2862;52.560;13.566;2023-08-06T01:33:53;25.40;;;9.37;;
5678;SDS011;2862;52.560;13.566;2023-08-06T01:44:00;25.50;;;10.07;;
5678;SDS011;2862;52.560;13.566;2023-08-06T01:54:05;24.60;;;8.00;;
5678;SDS011;2862;52.560;13.566;2023-08-06T02:04:10;20.23;;;7.70;;
5678;SDS011;2862;52.560;13.566;2023-08-06T02:14:13;24.30;;;9.00;;
5678;SDS011;2862;52.560;13.566;2023-08-06T02:24:17;21.80;;;8.60;;
5678;SDS011;2862;52.560;13.566;2023-08-06T02:34:20;22.03;;;7.80;;
5678;SDS011;2862;52.560;13.566;2023-08-06T02:44:26;22.97;;;7.87;;
5678;SDS011;2862;52.560;13.566;2023-08-06T02:54:30;20.20;;;6.40;;
5678;SDS011;2862;52.560;13.566;2023-08-06T03:04:35;21.90;;;5.90;;
5678;SDS011;2862;52.560;13.566;2023-08-06T03:14:39;20.97;;;6.33;;
5678;SDS011;2862;52.560;13.566;2023-08-06T03:24:45;19.03;;;6.07;;
5678;SDS011;2862;52.560;13.566;2023-08-06T03:34:48;21.00;;;6.20;;
5678;SDS011;2862;52.560;13.566;2023-08-06T03:44:53;19.77;;;6.57;;
5678;SDS011;2862;52.560;13.566;2023-08-06T03:54:56;21.50;;;6.57;;
5678;SDS011;2862;52.560;13.566;2023-08-06T04:05:01;20.50;;;5.70;;
5678;SDS011;2862;52.560;13.566;2023-08-06T04:15:05;20.37;;;6.17;;
5678;SDS011;2862;52.560;13.566;2023-08-06T04:25:10;21.90;;;6.50;;
5678;SDS011;2862;52.560;13.566;2023-08-06T04:35:13;21.50;;;7.90;;
5678;SDS011;2862;52.560;13.566;2023-08-06T04:45:18;26.40;;;9.87;;
5678;SDS011;2862;52.560;13.566;2023-08-06T04:55:21;21.73;;;7.20;;
5678;SDS011;2862;52.560;13.566;2023-08-06T05:05:26;20.87;;;7.00;;
5678;SDS011;2862;52.560;13.566;2023-08-06T05:15:29;18.80;;;5.73;;
5678;SDS011;2862;52.560;13.566;2023-08-06T05:25:35;18.30;;;5.80;;
5678;SDS011;2862;52.560;13.566;2023-08-06T05:35:38;20.70;;;6.67;;
5678;SDS011;2862;52.560;13.566;2023-08-06T05:45:45;24.10;;;6.43;;
5678;SDS011;2862;52.560;13.566;2023-08-06T05:55:49;18.43;;;6.23;;
5678;SDS011;2862;52.560;13.566;2023-08-06T06:05:54;23.30;;;6.30;;
5678;SDS011;2862;52.560;13.566;2023-08-06T06:15:57;23.60;;;7.20;;
5678;SDS011;2862;52.560;13.566;2023-08-06T06:26:01;22.13;;;7.83;;
5678;SDS011;2862;52.560;13.566;2023-08-06T06:36:04;22.30;;;8.00;;
5678;SDS011;2862;52.560;13.566;2023-08-06T06:46:10;21.70;;;8.37;;
5678;SDS011;2862;52.560;13.566;2023-08-06T06:56:13;24.10;;;10.10;;
5678;SDS011;2862;52.560;13.566;2023-08-06T07:06:17;25.10;;;10.23;;
5678;SDS011;2862;52.560;13.566;2023-08-06T07:16:21;28.80;;;14.47;;
5678;SDS011;2862;52.560;13.566;2023-08-06T07:26:25;28.37;;;8.80;;
5678;SDS011;2862;52.560;13.566;2023-08-06T07:36:28;25.10;;;10.00;;
5678;SDS011;2862;52.560;13.566;2023-08-06T07:46:32;65.20;;;36.83;;
5678;SDS011;2862;52.560;13.566;2023-08-06T07:56:34;50.80;;;29.50;;
5678;SDS011;2862;52.560;13.566;2023-08-06T08:06:40;36.23;;;21.07;;
5678;SDS011;2862;52.560;13.566;2023-08-06T08:16:44;33.80;;;16.97;;
5678;SDS011;2862;52.560;13.566;2023-08-06T08:26:48;26.77;;;13.43;;
5678;SDS011;2862;52.560;13.566;2023-08-06T08:36:51;47.87;;;23.83;;
5678;SDS011;2862;52.560;13.566;2023-08-06T08:46:55;26.47;;;10.53;;
5678;SDS011;2862;52.560;13.566;2023-08-06T08:56:58;32.93;;;16.47;;
5678;SDS011;2862;52.560;13.566;2023-08-06T09:07:03;58.77;;;34.87;;
5678;SDS011;2862;52.560;13.566;2023-08-06T09:17:08;25.87;;;11.97;;
5678;SDS011;2862;52.560;13.566;2023-08-06T09:27:13;27.67;;;12.50;;
5678;SDS011;2862;52.560;13.566;2023-08-06T09:37:16;37.63;;;16.70;;
5678;SDS011;2862;52.560;13.566;2023-08-06T09:47:20;35.40;;;18.00;;
5678;SDS011;2862;52.560;13.566;2023-08-06T09:57:27;61.57;;;36.53;;
5678;SDS011;2862;52.560;13.566;2023-08-06T10:07:31;48.67;;;23.53;;
5678;SDS011;2862;52.560;13.566;2023-08-06T10:17:34;43.43;;;23.60;;
5678;SDS011;2862;52.560;13.566;2023-08-06T10:27:54;23.10;;;10.07;;
5678;SDS011;2862;52.560;13.566;2023-08-06T10:37:58;21.70;;;9.10;;
5678;SDS011;2862;52.560;13.566;2023-08-06T10:48:03;28.10;;;11.70;;
5678;SDS011;2862;52.560;13.566;2023-08-06T10:58:07;20.97;;;9.93;;
5678;SDS011;2862;52.560;13.566;2023-08-06T11:08:11;21.17;;;7.27;;
5678;SDS011;2862;52.560;13.566;2023-08-06T11:18:14;34.10;;;18.60;;
5678;SDS011;2862;52.560;13.566;2023-08-06T11:28:20;29.13;;;11.37;;
5678;SDS011;2862;52.560;13.566;2023-08-06T11:38:24;24.33;;;10.70;;
5678;SDS011;2862;52.560;13.566;2023-08-06T11:48:30;23.70;;;9.20;;
5678;SDS011;2862;52.560;13.566;2023-08-06T11:58:33;42.17;;;20.27;;
5678;SDS011;2862;52.560;13.566;2023-08-06T12:08:37;41.37;;;18.23;;
5678;SDS011;2862;52.560;13.566;2023-08-06T12:18:40;24.93;;;11.13;;
5678;SDS011;2862;52.560;13.566;2023-08-06T12:28:44;44.97;;;20.00;;
5678;SDS011;2862;52.560;13.566;2023-08-06T12:38:48;48.77;;;22.57;;
5678;SDS011;2862;52.560;13.566;2023-08-06T12:48:52;24.93;;;10.90;;
5678;SDS011;2862;52.560;13.566;2023-08-06T12:58:55;27.60;;;9.50;;
5678;SDS011;2862;52.560;13.566;2023-08-06T13:08:59;21.90;;;8.10;;
5678;SDS011;2862;52.560;13.566;2023-08-06T13:19:02;24.27;;;10.60;;
5678;SDS011;2862;52.560;13.566;2023-08-06T13:29:07;25.00;;;9.13;;
5678;SDS011;2862;52.560;13.566;2023-08-06T13:39:10;33.60;;;14.67;;
5678;SDS011;2862;52.560;13.566;2023-08-06T13:49:15;27.53;;;10.97;;
5678;SDS011;2862;52.560;13.566;2023-08-06T13:59:18;27.20;;;9.17;;
5678;SDS011;2862;52.560;13.566;2023-08-06T14:09:22;28.77;;;12.23;;
5678;SDS011;2862;52.560;13.566;2023-08-06T14:19:26;19.07;;;5.50;;
5678;SDS011;2862;52.560;13.566;2023-08-06T14:29:30;25.10;;;8.50;;
5678;SDS011;2862;52.560;13.566;2023-08-06T14:39:33;17.47;;;5.07;;
5678;SDS011;2862;52.560;13.566;2023-08-06T14:49:38;22.70;;;4.27;;
5678;SDS011;2862;52.560;13.566;2023-08-06T14:59:45;25.00;;;6.87;;
5678;SDS011;2862;52.560;13.566;2023-08-06T15:09:49;18.40;;;5.90;;
5678;SDS011;2862;52.560;13.566;2023-08-06T15:21:37;20.97;;;7.00;;
5678;SDS011;2862;52.560;13.566;2023-08-06T15:31:39;20.37;;;5.00;;
5678;SDS011;2862;52.560;13.566;2023-08-06T15:41:42;21.37;;;3.50;;
5678;SDS011;2862;52.560;13.566;2023-08-06T15:51:46;17.67;;;2.67;;
5678;SDS011;2862;52.560;13.566;2023-08-06T16:01:49;20.57;;;5.80;;
5678;SDS011;2862;52.560;13.566;2023-08-06T16:11:54;25.33;;;5.60;;
5678;SDS011;2862;52.560;13.566;2023-08-06T16:21:57;19.33;;;4.90;;
5678;SDS011;2862;52.560;13.566;2023-08-06T16:32:01;24.57;;;4.93;;
5678;SDS011;2862;52.560;13.566;2023-08-06T16:42:06;16.73;;;3.37;;
5678;SDS011;2862;52.560;13.566;2023-08-06T16:52:10;19.03;;;2.37;;
5678;SDS011;2862;52.560;13.566;2023-08-06T17:02:13;16.50;;;3.00;;
5678;SDS011;2862;52.560;13.566;2023-08-06T17:12:17;15.70;;;1.97;;
5678;SDS011;2862;52.560;13.566;2023-08-06T17:22:21;16.57;;;2.07;;
5678;SDS011;2862;52.560;13.566;2023-08-06T17:32:26;17.70;;;4.13;;
5678;SDS011;2862;52.560;13.566;2023-08-06T17:42:29;17.30;;;2.10;;
5678;SDS011;2862;52.560;13.566;2023-08-06T17:52:33;18.83;;;3.97;;
5678;SDS011;2862;52.560;13.566;2023-08-06T18:02:36;21.17;;;4.97;;
5678;SDS011;2862;52.560;13.566;2023-08-06T18:12:41;27.70;;;11.67;;
5678;SDS011;2862;52.560;13.566;2023-08-06T18:22:44;22.00;;;6.80;;
5678;SDS011;2862;52.560;13.566;2023-08-06T18:32:49;19.37;;;4.07;;
5678;SDS011;2862;52.560;13.566;2023-08-06T18:42:53;33.00;;;12.77;;
5678;SDS011;2862;52.560;13.566;2023-08-06T18:52:57;24.37;;;8.40;;
5678;SDS011;2862;52.560;13.566;2023-08-06T19:03:00;17.13;;;4.33;;
5678;SDS011;2862;52.560;13.566;2023-08-06T19:13:07;19.77;;;4.23;;
5678;SDS011;2862;52.560;13.566;2023-08-06T19:23:11;33.43;;;13.33;;
5678;SDS011;2862;52.560;13.566;2023-08-06T19:33:18;23.47;;;4.90;;
5678;SDS011;2862;52.560;13.566;2023-08-06T19:43:22;18.57;;;5.37;;
5678;SDS011;2862;52.560;13.566;2023-08-06T19:53:26;21.63;;;7.00;;
5678;SDS011;2862;52.560;13.566;2023-08-06T20:03:31;26.37;;;7.03;;
5678;SDS011;2862;52.560;13.566;2023-08-06T20:13:36;22.07;;;6.27;;
5678;SDS011;2862;52.560;13.566;2023-08-06T20:23:40;16.93;;;3.17;;
5678;SDS011;2862;52.560;13.566;2023-08-06T20:33:45;23.50;;;7.63;;
5678;SDS011;2862;52.560;13.566;2023-08-06T20:43:48;24.33;;;8.13;;
5678;SDS011;2862;52.560;13.566;2023-08-06T20:53:52;16.37;;;2.27;;
5678;SDS011;2862;52.560;13.566;2023-08-06T21:03:55;24.37;;;8.00;;
5678;SDS011;2862;52.560;13.566;2023-08-06T21:13:59;25.83;;;6.83;;
5678;SDS011;2862;52.560;13.566;2023-08-06T21:24:03;17.73;;;2.00;;
5678;SDS011;2862;52.560;13.566;2023-08-06T21:34:08;14.90;;;1.97;;
5678;SDS011;2862;52.560;13.566;2023-08-06T21:44:11;14.53;;;1.70;;
5678;SDS011;2862;52.560;13.566;2023-08-06T21:54:15;14.50;;;1.10;;
5678;SDS011;2862;52.560;13.566;2023-08-06T22:04:19;15.00;;;0.80;;
5678;SDS011;2862;52.560;13.566;2023-08-06T22:14:23;14.57;;;0.63;;
5678;SDS011;2862;52.560;13.566;2023-08-06T22:24:26;15.20;;;0.83;;
5678;SDS011;2862;52.560;13.566;2023-08-06T22:34:31;14.43;;;0.60;;
5678;SDS011;2862;52.560;13.566;2023-08-06T22:44:35;16.00;;;1.07;;
5678;SDS011;2862;52.560;13.566;2023-08-06T22:54:40;16.63;;;1.03;;
5678;SDS011;2862;52.560;13.566;2023-08-06T23:04:46;15.27;;;1.60;;
5678;SDS011;2862;52.560;13.566;2023-08-06T23:14:51;19.10;;;1.70;;
5678;SDS011;2862;52.560;13.566;2023-08-06T23:24:55;18.67;;;1.50;;
5678;SDS011;2862;52.560;13.566;2023-08-06T23:34:59;18.50;;;1.50;;
5678;SDS011;2862;52.560;13.566;2023-08-06T23:45:02;16.13;;;1.17;;
5678;SDS011;2862;52.560;13.566;2023-08-06T23:55:07;13.50;;;1.33;;
